createdAt,value
2018-04-23T00:01:55.147Z,19.86
2018-04-23T00:04:22.958Z,19.82
2018-04-23T00:06:50.560Z,19.80
2018-04-23T00:09:18.142Z,19.77
2018-04-23T00:11:45.755Z,19.76
2018-04-23T00:14:13.972Z,19.72
2018-04-23T00:16:41.617Z,19.79
2018-04-23T00:19:09.202Z,19.86
2018-04-23T00:21:37.014Z,19.79
2018-04-23T00:24:04.614Z,19.78
2018-04-23T00:26:32.203Z,19.85
2018-04-23T00:28:59.818Z,19.77
2018-04-23T00:31:27.403Z,19.75
2018-04-23T00:33:55.022Z,19.68
2018-04-23T00:36:22.620Z,19.69
2018-04-23T00:38:50.440Z,19.73
2018-04-23T00:41:18.027Z,19.79
2018-04-23T00:43:45.670Z,19.75
2018-04-23T00:46:13.282Z,19.74
2018-04-23T00:48:40.890Z,19.69
2018-04-23T00:51:08.513Z,19.62
2018-04-23T00:53:42.730Z,19.68
2018-04-23T00:56:10.340Z,19.68
2018-04-23T00:58:37.934Z,19.72
2018-04-23T01:01:05.957Z,19.77
2018-04-23T01:03:33.551Z,19.75
2018-04-23T01:06:01.138Z,19.73
2018-04-23T01:08:28.751Z,19.71
2018-04-23T01:10:56.341Z,19.65
2018-04-23T01:13:23.956Z,19.64
2018-04-23T01:15:51.584Z,19.55
2018-04-23T01:18:19.228Z,19.56
2018-04-23T01:20:46.829Z,19.58
2018-04-23T01:23:14.435Z,19.62
2018-04-23T01:25:42.034Z,19.59
2018-04-23T01:28:09.634Z,19.52
2018-04-23T01:30:37.249Z,19.49
2018-04-23T01:33:04.842Z,19.48
2018-04-23T01:35:32.614Z,19.47
2018-04-23T01:38:00.206Z,19.46
2018-04-23T01:40:27.799Z,19.44
2018-04-23T01:42:55.438Z,19.45
2018-04-23T01:45:23.027Z,19.49
2018-04-23T01:47:50.646Z,19.39
2018-04-23T01:50:18.240Z,19.35
2018-04-23T01:52:46.147Z,19.31
2018-04-23T01:55:13.742Z,19.30
2018-04-23T01:57:41.338Z,19.26
2018-04-23T02:00:08.950Z,19.20
2018-04-23T02:02:36.548Z,19.13
2018-04-23T02:05:04.167Z,19.16
2018-04-23T02:07:31.770Z,19.09
2018-04-23T02:09:59.544Z,19.00
2018-04-23T02:12:27.135Z,18.89
2018-04-23T02:14:54.740Z,18.86
2018-04-23T02:17:22.369Z,18.83
2018-04-23T02:19:49.971Z,18.85
2018-04-23T02:22:17.591Z,18.80
2018-04-23T02:24:45.185Z,18.75
2018-04-23T02:27:12.815Z,18.74
2018-04-23T02:29:40.410Z,18.74
2018-04-23T02:32:08.063Z,18.71
2018-04-23T02:34:35.678Z,18.69
2018-04-23T02:37:03.281Z,18.65
2018-04-23T02:39:30.930Z,18.59
2018-04-23T02:41:58.527Z,18.54
2018-04-23T02:44:26.113Z,18.52
2018-04-23T02:46:53.738Z,18.51
2018-04-23T02:49:21.433Z,18.38
2018-04-23T02:51:49.085Z,18.42
2018-04-23T02:54:16.683Z,18.40
2018-04-23T02:56:44.276Z,18.35
2018-04-23T02:59:11.905Z,18.30
2018-04-23T03:01:39.495Z,18.23
2018-04-23T03:04:07.109Z,18.20
2018-04-23T03:06:34.707Z,18.16
2018-04-23T03:09:02.463Z,18.21
2018-04-23T03:11:30.072Z,18.15
2018-04-23T03:13:57.674Z,18.15
2018-04-23T03:16:25.286Z,18.19
2018-04-23T03:18:52.871Z,18.13
2018-04-23T03:21:20.482Z,18.11
2018-04-23T03:23:48.076Z,18.06
2018-04-23T03:26:15.707Z,17.96
2018-04-23T03:28:43.327Z,17.97
2018-04-23T03:31:10.929Z,17.98
2018-04-23T03:33:38.550Z,17.93
2018-04-23T03:36:06.183Z,17.89
2018-04-23T03:38:34.014Z,17.85
2018-04-23T03:41:01.607Z,17.80
2018-04-23T03:43:29.200Z,17.80
2018-04-23T03:45:56.819Z,17.73
2018-04-23T03:48:24.406Z,17.67
2018-04-23T03:50:52.051Z,17.61
2018-04-23T03:53:19.637Z,17.60
2018-04-23T03:55:47.233Z,17.58
2018-04-23T03:58:14.944Z,17.52
2018-04-23T04:00:42.544Z,17.53
2018-04-23T04:03:10.181Z,17.46
2018-04-23T04:05:37.778Z,17.39
2018-04-23T04:08:05.376Z,17.41
2018-04-23T04:10:32.988Z,17.41
2018-04-23T04:13:12.335Z,17.27
2018-04-23T04:15:51.550Z,17.26
2018-04-23T04:18:40.015Z,17.32
2018-04-23T04:21:07.697Z,17.34
2018-04-23T04:23:35.310Z,17.28
2018-04-23T04:26:02.938Z,17.27
2018-04-23T04:28:32.299Z,17.32
2018-04-23T04:30:59.914Z,17.32
2018-04-23T04:33:27.507Z,17.34
2018-04-23T04:35:55.137Z,17.32
2018-04-23T04:38:22.746Z,17.35
2018-04-23T04:40:50.368Z,17.34
2018-04-23T04:43:17.994Z,17.34
2018-04-23T04:45:45.583Z,17.40
2018-04-23T04:48:13.218Z,17.44
2018-04-23T04:50:40.818Z,17.47
2018-04-23T04:53:08.435Z,17.51
2018-04-23T04:55:36.027Z,17.48
2018-04-23T04:58:03.655Z,17.49
2018-04-23T05:00:31.275Z,17.66
2018-04-23T05:02:58.886Z,17.55
2018-04-23T05:05:26.543Z,17.56
2018-04-23T05:07:54.133Z,17.60
2018-04-23T05:10:21.731Z,17.63
2018-04-23T05:12:49.347Z,17.62
2018-04-23T05:15:16.951Z,17.64
2018-04-23T05:17:44.606Z,17.75
2018-04-23T05:20:12.194Z,17.77
2018-04-23T05:22:39.802Z,17.76
2018-04-23T05:25:07.415Z,17.82
2018-04-23T05:27:35.007Z,17.87
2018-04-23T05:30:02.833Z,17.86
2018-04-23T05:32:30.384Z,17.95
2018-04-23T05:34:57.985Z,17.96
2018-04-23T05:37:25.612Z,17.94
2018-04-23T05:39:53.220Z,17.93
2018-04-23T05:42:21.070Z,17.99
2018-04-23T05:44:48.666Z,18.08
2018-04-23T05:47:16.258Z,18.12
2018-04-23T05:49:43.877Z,18.23
2018-04-23T05:52:11.479Z,18.29
2018-04-23T05:54:39.268Z,18.25
2018-04-23T05:57:06.877Z,18.27
2018-04-23T05:59:34.473Z,18.30
2018-04-23T06:02:02.099Z,18.40
2018-04-23T06:04:29.707Z,18.39
2018-04-23T06:06:57.591Z,18.46
2018-04-23T06:09:25.202Z,18.48
2018-04-23T06:11:52.877Z,18.57
2018-04-23T06:14:20.536Z,18.59
2018-04-23T06:16:48.115Z,18.59
2018-04-23T06:19:15.743Z,18.83
2018-04-23T06:21:43.429Z,18.66
2018-04-23T06:24:11.089Z,18.77
2018-04-23T06:26:38.902Z,18.75
2018-04-23T06:29:06.519Z,18.81
2018-04-23T06:31:34.140Z,18.81
2018-04-23T06:34:01.739Z,18.90
2018-04-23T06:36:29.762Z,18.99
2018-04-23T06:38:57.373Z,19.06
2018-04-23T06:41:25.219Z,19.18
2018-04-23T06:43:52.806Z,19.29
2018-04-23T06:46:20.453Z,19.56
2018-04-23T06:48:48.155Z,19.55
2018-04-23T06:51:15.778Z,19.68
2018-04-23T06:53:43.406Z,19.66
2018-04-23T06:56:11.006Z,19.74
2018-04-23T06:58:38.816Z,19.73
2018-04-23T07:01:06.428Z,19.84
2018-04-23T07:03:34.042Z,19.93
2018-04-23T07:06:01.699Z,20.11
2018-04-23T07:08:29.292Z,20.12
2018-04-23T07:10:56.915Z,20.16
2018-04-23T07:13:24.583Z,20.32
2018-04-23T07:15:52.248Z,20.35
2018-04-23T07:18:19.852Z,20.48
2018-04-23T07:20:47.456Z,20.62
2018-04-23T07:23:15.079Z,20.62
2018-04-23T07:25:42.685Z,20.66
2018-04-23T07:28:10.302Z,20.75
2018-04-23T07:30:37.898Z,20.85
2018-04-23T07:33:05.527Z,21.00
2018-04-23T07:35:33.127Z,21.11
2018-04-23T07:38:00.720Z,21.24
2018-04-23T07:40:28.355Z,21.43
2018-04-23T07:42:55.937Z,21.54
2018-04-23T07:45:23.566Z,21.70
2018-04-23T07:47:51.193Z,21.72
2018-04-23T07:50:18.840Z,21.93
2018-04-23T07:52:46.454Z,21.88
2018-04-23T07:55:14.064Z,21.99
2018-04-23T07:57:41.689Z,21.99
2018-04-23T08:00:09.410Z,22.02
2018-04-23T08:02:37.038Z,22.04
2018-04-23T08:05:04.645Z,22.04
2018-04-23T08:07:32.434Z,22.24
2018-04-23T08:10:00.052Z,22.26
2018-04-23T08:12:27.670Z,22.36
2018-04-23T08:14:55.286Z,22.58
2018-04-23T08:17:22.874Z,22.66
2018-04-23T08:19:50.499Z,22.73
2018-04-23T08:22:18.098Z,22.72
2018-04-23T08:24:46.071Z,22.52
2018-04-23T08:27:13.662Z,22.70
2018-04-23T08:29:41.250Z,22.81
2018-04-23T08:32:08.862Z,22.82
2018-04-23T08:34:36.458Z,22.67
2018-04-23T08:37:04.067Z,22.68
2018-04-23T08:39:31.666Z,22.66
2018-04-23T08:41:59.684Z,22.82
2018-04-23T08:44:27.290Z,22.75
2018-04-23T08:46:54.902Z,22.80
2018-04-23T08:49:22.514Z,22.97
2018-04-23T08:51:50.102Z,22.92
2018-04-23T08:54:17.719Z,22.83
2018-04-23T08:56:45.313Z,22.97
2018-04-23T08:59:13.151Z,23.01
2018-04-23T09:01:40.749Z,22.93
2018-04-23T09:04:08.359Z,23.08
2018-04-23T09:06:35.974Z,22.98
2018-04-23T09:09:03.577Z,23.08
2018-04-23T09:11:31.194Z,23.19
2018-04-23T09:13:58.800Z,23.18
2018-04-23T09:16:26.662Z,23.34
2018-04-23T09:18:54.260Z,23.33
2018-04-23T09:21:21.908Z,23.56
2018-04-23T09:23:49.535Z,23.86
2018-04-23T09:26:17.134Z,23.72
2018-04-23T09:28:44.797Z,23.47
2018-04-23T09:31:12.387Z,23.45
2018-04-23T09:33:40.022Z,23.38
2018-04-23T09:36:07.627Z,22.61
2018-04-23T09:38:35.230Z,22.26
2018-04-23T09:41:02.857Z,22.04
2018-04-23T09:43:30.476Z,21.99
2018-04-23T09:45:58.142Z,22.03
2018-04-23T09:48:25.767Z,21.81
2018-04-23T09:50:53.395Z,22.43
2018-04-23T09:53:21.007Z,22.53
2018-04-23T09:55:48.602Z,22.73
2018-04-23T09:58:16.221Z,22.83
2018-04-23T10:00:43.815Z,22.11
2018-04-23T10:03:11.670Z,21.78
2018-04-23T10:05:39.280Z,21.49
2018-04-23T10:08:06.880Z,21.19
2018-04-23T10:10:34.505Z,20.23
2018-04-23T10:13:02.149Z,20.43
2018-04-23T10:15:29.981Z,20.22
2018-04-23T10:17:57.598Z,19.85
2018-04-23T10:20:25.186Z,19.57
2018-04-23T10:22:52.806Z,19.26
2018-04-23T10:25:20.399Z,19.31
2018-04-23T10:27:48.046Z,18.80
2018-04-23T10:30:15.639Z,18.84
2018-04-23T10:32:43.435Z,18.76
2018-04-23T10:35:11.021Z,18.88
2018-04-23T10:37:38.618Z,18.89
2018-04-23T10:40:06.262Z,18.86
2018-04-23T10:42:33.874Z,18.82
2018-04-23T10:45:01.494Z,18.73
2018-04-23T10:47:29.090Z,18.32
2018-04-23T10:49:56.740Z,18.37
2018-04-23T10:52:24.353Z,17.67
2018-04-23T10:54:51.964Z,17.77
2018-04-23T10:57:19.599Z,17.73
2018-04-23T10:59:47.194Z,17.88
2018-04-23T11:02:14.823Z,18.03
2018-04-23T11:04:42.423Z,18.20
2018-04-23T11:07:10.153Z,18.40
2018-04-23T11:09:37.857Z,18.29
2018-04-23T11:12:05.460Z,18.16
2018-04-23T11:14:33.084Z,18.46
2018-04-23T11:17:00.699Z,18.50
2018-04-23T11:19:28.328Z,18.68
2018-04-23T11:21:55.930Z,18.60
2018-04-23T11:24:23.983Z,18.12
2018-04-23T11:26:51.588Z,18.11
2018-04-23T11:29:19.185Z,18.21
2018-04-23T11:31:46.796Z,18.30
2018-04-23T11:34:14.394Z,18.29
2018-04-23T11:36:42.149Z,18.43
2018-04-23T11:39:09.765Z,18.65
2018-04-23T11:41:37.502Z,18.51
2018-04-23T11:44:05.138Z,18.33
2018-04-23T11:46:32.776Z,18.36
2018-04-23T11:49:00.404Z,18.64
2018-04-23T11:51:28.008Z,18.55
2018-04-23T11:53:55.645Z,18.67
2018-04-23T11:56:23.253Z,18.56
2018-04-23T11:58:51.120Z,18.83
2018-04-23T12:01:18.721Z,18.83
2018-04-23T12:03:46.317Z,18.75
2018-04-23T12:06:13.935Z,19.03
2018-04-23T12:08:41.532Z,18.97
2018-04-23T12:11:09.165Z,18.91
2018-04-23T12:13:36.759Z,19.22
2018-04-23T12:16:04.458Z,19.19
2018-04-23T12:18:32.084Z,19.10
2018-04-23T12:20:59.673Z,19.46
2018-04-23T12:23:27.303Z,19.49
2018-04-23T12:25:54.922Z,19.32
2018-04-23T12:28:22.559Z,19.45
2018-04-23T12:30:50.155Z,19.62
2018-04-23T12:33:17.960Z,19.52
2018-04-23T12:35:45.562Z,19.38
2018-04-23T12:38:13.183Z,19.65
2018-04-23T12:40:40.788Z,19.68
2018-04-23T12:43:08.415Z,19.60
2018-04-23T12:45:36.012Z,19.60
2018-04-23T12:48:03.658Z,19.71
2018-04-23T12:50:31.250Z,20.14
2018-04-23T12:52:58.848Z,20.43
2018-04-23T12:55:26.468Z,21.13
2018-04-23T12:57:54.069Z,21.38
2018-04-23T13:00:21.738Z,21.71
2018-04-23T13:02:49.358Z,22.58
2018-04-23T13:05:17.250Z,22.69
2018-04-23T13:07:44.860Z,22.44
2018-04-23T13:10:12.474Z,22.16
2018-04-23T13:12:40.092Z,22.24
2018-04-23T13:15:07.695Z,22.21
2018-04-23T13:17:35.338Z,21.89
2018-04-23T13:20:02.960Z,22.07
2018-04-23T13:22:30.790Z,21.87
2018-04-23T13:24:58.378Z,22.04
2018-04-23T13:27:25.975Z,22.20
2018-04-23T13:29:53.587Z,22.90
2018-04-23T13:32:21.208Z,23.56
2018-04-23T13:34:48.834Z,23.28
2018-04-23T13:37:16.430Z,22.78
2018-04-23T13:39:44.059Z,22.44
2018-04-23T13:42:11.650Z,22.55
2018-04-23T13:44:39.276Z,22.57
2018-04-23T13:47:06.899Z,22.17
2018-04-23T13:49:34.511Z,22.09
2018-04-23T13:52:02.157Z,21.88
2018-04-23T13:54:29.804Z,21.81
2018-04-23T13:56:57.434Z,21.56
2018-04-23T13:59:25.027Z,21.51
2018-04-23T14:01:52.691Z,21.42
2018-04-23T14:04:20.285Z,21.35
2018-04-23T14:06:47.895Z,21.31
2018-04-23T14:09:15.521Z,21.39
2018-04-23T14:11:43.115Z,21.42
2018-04-23T14:14:10.733Z,21.33
2018-04-23T14:16:38.327Z,21.33
2018-04-23T14:19:06.061Z,21.37
2018-04-23T14:21:33.676Z,21.37
2018-04-23T14:24:01.273Z,21.35
2018-04-23T14:26:28.906Z,21.33
2018-04-23T14:28:56.510Z,21.42
2018-04-23T14:31:24.135Z,21.13
2018-04-23T14:33:51.728Z,21.13
2018-04-23T14:36:20.268Z,21.21
2018-04-23T14:38:47.868Z,21.19
2018-04-23T14:41:15.470Z,21.27
2018-04-23T14:43:43.088Z,21.25
2018-04-23T14:46:10.809Z,21.19
2018-04-23T14:48:38.441Z,21.17
2018-04-23T14:51:06.036Z,21.18
2018-04-23T14:53:34.119Z,21.07
2018-04-23T14:56:01.777Z,21.00
2018-04-23T14:58:29.379Z,20.95
2018-04-23T15:00:57.008Z,21.09
2018-04-23T15:03:24.612Z,20.95
2018-04-23T15:05:52.245Z,21.05
2018-04-23T15:08:19.880Z,21.26
2018-04-23T15:10:47.635Z,21.44
2018-04-23T15:13:15.241Z,21.46
2018-04-23T15:15:42.834Z,21.69
2018-04-23T15:18:10.465Z,21.62
2018-04-23T15:20:38.078Z,21.43
2018-04-23T15:23:05.754Z,21.36
2018-04-23T15:25:33.344Z,21.48
2018-04-23T15:28:00.991Z,21.46
2018-04-23T15:30:28.637Z,21.46
2018-04-23T15:32:56.253Z,21.41
2018-04-23T15:35:23.874Z,21.53
2018-04-23T15:37:51.471Z,21.51
2018-04-23T15:40:19.074Z,21.78
2018-04-23T15:42:46.667Z,21.57
2018-04-23T15:45:14.403Z,21.59
2018-04-23T15:47:42.010Z,21.56
2018-04-23T15:50:09.622Z,21.79
2018-04-23T15:52:37.237Z,21.43
2018-04-23T15:55:04.878Z,21.44
2018-04-23T15:57:32.507Z,21.29
2018-04-23T16:00:00.099Z,21.41
2018-04-23T16:02:27.915Z,21.42
2018-04-23T16:04:55.513Z,21.21
2018-04-23T16:07:23.166Z,21.16
2018-04-23T16:09:50.801Z,21.27
2018-04-23T16:12:18.387Z,21.55
2018-04-23T16:14:46.010Z,21.51
2018-04-23T16:17:13.603Z,21.45
2018-04-23T16:19:41.579Z,21.26
2018-04-23T16:22:09.184Z,21.44
2018-04-23T16:24:36.812Z,21.44
2018-04-23T16:27:04.430Z,21.51
2018-04-23T16:29:32.026Z,21.41
2018-04-23T16:31:59.650Z,21.38
2018-04-23T16:34:27.330Z,21.58
2018-04-23T16:36:54.975Z,21.67
2018-04-23T16:39:22.583Z,21.51
2018-04-23T16:41:50.192Z,21.37
2018-04-23T16:44:17.817Z,21.38
2018-04-23T16:46:45.430Z,21.21
2018-04-23T16:49:13.062Z,21.28
2018-04-23T16:51:40.670Z,21.21
2018-04-23T16:54:08.856Z,21.20
2018-04-23T16:56:36.451Z,21.39
2018-04-23T16:59:04.081Z,21.33
2018-04-23T17:01:31.706Z,21.47
2018-04-23T17:03:59.302Z,21.40
2018-04-23T17:06:27.019Z,21.50
2018-04-23T17:08:54.615Z,21.50
2018-04-23T17:11:22.427Z,21.65
2018-04-23T17:13:50.021Z,21.23
2018-04-23T17:16:17.614Z,20.99
2018-04-23T17:18:45.287Z,20.90
2018-04-23T17:21:12.852Z,20.61
2018-04-23T17:23:40.471Z,20.41
2018-04-23T17:26:08.062Z,20.36
2018-04-23T17:28:35.824Z,20.48
2018-04-23T17:31:03.427Z,20.47
2018-04-23T17:33:31.039Z,20.34
2018-04-23T17:35:58.670Z,20.30
2018-04-23T17:38:26.405Z,20.27
2018-04-23T17:40:54.022Z,20.29
2018-04-23T17:43:21.638Z,20.27
2018-04-23T17:45:49.454Z,20.42
2018-04-23T17:48:17.060Z,20.26
2018-04-23T17:50:44.659Z,20.22
2018-04-23T17:53:12.285Z,20.25
2018-04-23T17:55:39.883Z,20.06
2018-04-23T17:58:07.497Z,20.02
2018-04-23T18:00:35.091Z,20.07
2018-04-23T18:03:03.004Z,19.95
2018-04-23T18:05:30.614Z,19.97
2018-04-23T18:07:58.206Z,19.89
2018-04-23T18:10:25.830Z,19.89
2018-04-23T18:12:53.421Z,19.94
2018-04-23T18:15:21.038Z,19.88
2018-04-23T18:17:48.640Z,19.79
2018-04-23T18:20:16.272Z,19.82
2018-04-23T18:22:43.899Z,19.80
2018-04-23T18:25:11.491Z,19.77
2018-04-23T18:27:39.115Z,19.70
2018-04-23T18:30:06.721Z,19.74
2018-04-23T18:32:34.345Z,19.81
2018-04-23T18:35:01.940Z,19.62
2018-04-23T18:37:29.542Z,19.55
2018-04-23T18:39:57.154Z,19.43
2018-04-23T18:42:24.746Z,19.25
2018-04-23T18:44:52.378Z,19.33
2018-04-23T18:47:20.012Z,19.36
2018-04-23T18:49:47.656Z,19.23
2018-04-23T18:52:15.264Z,19.27
2018-04-23T18:54:42.851Z,19.14
2018-04-23T18:57:10.476Z,19.24
2018-04-23T18:59:38.074Z,19.19
2018-04-23T19:02:05.705Z,19.00
2018-04-23T19:04:33.331Z,18.88
2018-04-23T19:07:01.403Z,18.95
2018-04-23T19:09:28.988Z,18.92
2018-04-23T19:11:56.579Z,18.88
2018-04-23T19:14:24.203Z,18.87
2018-04-23T19:16:51.810Z,18.79
2018-04-23T19:19:19.429Z,18.66
2018-04-23T19:21:47.111Z,18.62
2018-04-23T19:24:14.716Z,18.59
2018-04-23T19:26:42.338Z,18.67
2018-04-23T19:29:09.942Z,18.70
2018-04-23T19:31:37.574Z,18.73
2018-04-23T19:34:05.179Z,18.68
2018-04-23T19:36:32.799Z,18.53
2018-04-23T19:39:00.394Z,18.54
2018-04-23T19:41:28.006Z,18.62
2018-04-23T19:43:55.604Z,18.62
2018-04-23T19:46:23.296Z,18.64
2018-04-23T19:48:50.828Z,18.58
2018-04-23T19:51:18.430Z,18.58
2018-04-23T19:53:46.026Z,18.74
2018-04-23T19:56:13.648Z,18.55
2018-04-23T19:58:41.250Z,18.42
2018-04-23T20:01:09.065Z,18.44
2018-04-23T20:03:36.665Z,18.32
2018-04-23T20:06:04.255Z,18.42
2018-04-23T20:08:31.867Z,18.18
2018-04-23T20:10:59.464Z,17.95
2018-04-23T20:13:27.098Z,18.09
2018-04-23T20:15:54.701Z,17.88
2018-04-23T20:18:22.326Z,17.84
2018-04-23T20:20:49.922Z,17.86
2018-04-23T20:23:17.610Z,17.89
2018-04-23T20:25:45.146Z,17.81
2018-04-23T20:28:12.767Z,17.80
2018-04-23T20:30:40.367Z,17.83
2018-04-23T20:33:08.025Z,17.66
2018-04-23T20:35:41.507Z,17.75
2018-04-23T20:38:09.330Z,17.66
2018-04-23T20:40:36.928Z,17.66
2018-04-23T20:43:04.522Z,17.81
2018-04-23T20:45:32.144Z,17.67
2018-04-23T20:47:59.738Z,17.51
2018-04-23T20:50:27.351Z,17.42
2018-04-23T20:52:54.953Z,17.49
2018-04-23T20:55:22.859Z,17.27
2018-04-23T20:57:50.479Z,17.25
2018-04-23T21:00:18.218Z,17.17
2018-04-23T21:02:45.851Z,17.27
2018-04-23T21:05:13.459Z,17.24
2018-04-23T21:07:41.074Z,17.26
2018-04-23T21:10:08.698Z,17.11
2018-04-23T21:12:36.608Z,16.98
2018-04-23T21:15:04.211Z,17.14
2018-04-23T21:17:31.796Z,17.12
2018-04-23T21:19:59.436Z,17.09
2018-04-23T21:22:27.137Z,17.20
2018-04-23T21:24:54.707Z,16.98
2018-04-23T21:27:22.319Z,16.88
2018-04-23T21:29:50.274Z,16.87
2018-04-23T21:32:17.870Z,16.96
2018-04-23T21:34:45.480Z,16.82
2018-04-23T21:37:13.143Z,16.77
2018-04-23T21:39:40.734Z,16.85
2018-04-23T21:42:08.354Z,16.88
2018-04-23T21:44:35.957Z,16.96
2018-04-23T21:47:03.973Z,16.77
2018-04-23T21:49:31.574Z,16.77
2018-04-23T21:51:59.170Z,16.73
2018-04-23T21:54:26.799Z,16.56
2018-04-23T21:56:54.508Z,16.68
2018-04-23T21:59:22.202Z,16.68
2018-04-23T22:01:49.807Z,16.59
2018-04-23T22:04:17.716Z,16.60
2018-04-23T22:06:45.387Z,16.51
2018-04-23T22:09:12.991Z,16.62
2018-04-23T22:11:40.598Z,16.58
2018-04-23T22:14:08.218Z,16.52
2018-04-23T22:16:35.839Z,16.49
2018-04-23T22:19:03.453Z,16.46
2018-04-23T22:21:31.074Z,16.65
2018-04-23T22:23:58.672Z,16.47
2018-04-23T22:26:26.317Z,16.64
2018-04-23T22:28:53.917Z,16.37
2018-04-23T22:31:21.526Z,16.39
2018-04-23T22:33:49.149Z,16.42
2018-04-23T22:36:16.750Z,16.38
2018-04-23T22:38:44.396Z,16.39
2018-04-23T22:41:11.994Z,16.42
2018-04-23T22:43:39.590Z,16.50
2018-04-23T22:46:07.215Z,16.44
2018-04-23T22:48:34.818Z,16.35
2018-04-23T22:51:02.592Z,16.35
2018-04-23T22:53:30.197Z,16.39
2018-04-23T22:55:57.807Z,16.15
2018-04-23T22:58:25.499Z,16.34
2018-04-23T23:00:53.078Z,16.33
2018-04-23T23:03:20.704Z,16.28
2018-04-23T23:05:48.308Z,16.27
2018-04-23T23:08:15.920Z,16.16
2018-04-23T23:10:43.519Z,16.11
2018-04-23T23:13:11.247Z,16.11
2018-04-23T23:15:38.848Z,16.19
2018-04-23T23:18:06.459Z,16.13
2018-04-23T23:20:34.083Z,16.05
2018-04-23T23:23:01.691Z,15.98
2018-04-23T23:25:29.314Z,15.95
2018-04-23T23:27:56.910Z,15.95
2018-04-23T23:30:24.546Z,15.92
2018-04-23T23:32:52.181Z,15.88
2018-04-23T23:35:19.771Z,15.95
2018-04-23T23:37:47.394Z,15.91
2018-04-23T23:40:15.001Z,16.02
2018-04-23T23:42:42.623Z,15.77
2018-04-23T23:45:10.218Z,15.69
2018-04-23T23:47:37.982Z,15.75
2018-04-23T23:50:05.590Z,15.69
2018-04-23T23:52:33.208Z,15.69
2018-04-23T23:55:00.834Z,15.72
2018-04-23T23:57:28.438Z,15.98
2018-04-23T23:59:56.063Z,15.98
